sensor_id;sensor_type;location;lat;lon;timestamp;P1;durP1;ratioP1;P2;durP2;ratioP2
68384;SDS011;55336;43.062;25.626;2023-05-31T07:55:36;2.10;;;1.98;;
68384;SDS011;55336;43.062;25.626;2023-05-31T07:58:02;3.25;;;2.95;;
68384;SDS011;55336;43.062;25.626;2023-05-31T08:00:29;2.30;;;2.17;;
68384;SDS011;55336;43.062;25.626;2023-05-31T08:02:55;2.08;;;1.95;;
68384;SDS011;55336;43.062;25.626;2023-05-31T08:05:21;2.83;;;2.55;;
68384;SDS011;55336;43.062;25.626;2023-05-31T08:07:47;2.28;;;2.08;;
68384;SDS011;55336;43.062;25.626;2023-05-31T08:10:17;2.35;;;2.13;;
68384;SDS011;55336;43.062;25.626;2023-05-31T08:12:43;2.60;;;2.40;;
68384;SDS011;55336;43.062;25.626;2023-05-31T08:15:09;3.35;;;2.38;;
68384;SDS011;55336;43.062;25.626;2023-05-31T08:17:38;2.40;;;2.20;;
68384;SDS011;55336;43.062;25.626;2023-05-31T08:20:05;1.60;;;1.50;;
68384;SDS011;55336;43.062;25.626;2023-05-31T08:22:32;2.40;;;2.03;;
68384;SDS011;55336;43.062;25.626;2023-05-31T08:24:58;2.85;;;2.28;;
68384;SDS011;55336;43.062;25.626;2023-05-31T08:27:24;1.90;;;1.73;;
68384;SDS011;55336;43.062;25.626;2023-05-31T08:29:50;2.28;;;2.08;;
68384;SDS011;55336;43.062;25.626;2023-05-31T08:32:16;2.10;;;2.00;;
68384;SDS011;55336;43.062;25.626;2023-05-31T08:34:43;3.00;;;2.15;;
68384;SDS011;55336;43.062;25.626;2023-05-31T08:37:11;2.05;;;1.88;;
68384;SDS011;55336;43.062;25.626;2023-05-31T08:39:37;2.05;;;1.95;;
68384;SDS011;55336;43.062;25.626;2023-05-31T08:42:04;1.95;;;1.85;;
68384;SDS011;55336;43.062;25.626;2023-05-31T08:44:35;2.65;;;2.45;;
68384;SDS011;55336;43.062;25.626;2023-05-31T08:47:12;2.28;;;2.10;;
68384;SDS011;55336;43.062;25.626;2023-05-31T08:49:51;2.35;;;2.20;;
68384;SDS011;55336;43.062;25.626;2023-05-31T08:52:19;1.80;;;1.70;;
68384;SDS011;55336;43.062;25.626;2023-05-31T08:54:46;1.90;;;1.80;;
68384;SDS011;55336;43.062;25.626;2023-05-31T08:57:13;1.45;;;1.35;;
68384;SDS011;55336;43.062;25.626;2023-05-31T08:59:42;2.08;;;1.88;;
68384;SDS011;55336;43.062;25.626;2023-05-31T09:02:18;2.58;;;1.88;;
68384;SDS011;55336;43.062;25.626;2023-05-31T09:04:45;2.38;;;2.08;;
68384;SDS011;55336;43.062;25.626;2023-05-31T09:07:11;3.10;;;1.90;;
68384;SDS011;55336;43.062;25.626;2023-05-31T09:09:37;4.53;;;2.20;;
68384;SDS011;55336;43.062;25.626;2023-05-31T09:12:02;2.13;;;1.85;;
68384;SDS011;55336;43.062;25.626;2023-05-31T09:14:29;1.90;;;1.70;;
68384;SDS011;55336;43.062;25.626;2023-05-31T09:16:56;1.83;;;1.73;;
68384;SDS011;55336;43.062;25.626;2023-05-31T09:19:22;1.55;;;1.45;;
68384;SDS011;55336;43.062;25.626;2023-05-31T09:21:48;1.50;;;1.40;;
68384;SDS011;55336;43.062;25.626;2023-05-31T09:24:16;1.73;;;1.60;;
68384;SDS011;55336;43.062;25.626;2023-05-31T09:26:50;2.15;;;1.65;;
68384;SDS011;55336;43.062;25.626;2023-05-31T09:29:17;3.30;;;2.17;;
68384;SDS011;55336;43.062;25.626;2023-05-31T09:31:45;1.52;;;1.42;;
68384;SDS011;55336;43.062;25.626;2023-05-31T09:34:44;1.58;;;1.42;;
68384;SDS011;55336;43.062;25.626;2023-05-31T09:37:03;2.08;;;1.88;;
68384;SDS011;55336;43.062;25.626;2023-05-31T09:39:29;1.60;;;1.50;;
68384;SDS011;55336;43.062;25.626;2023-05-31T09:41:56;2.38;;;2.17;;
68384;SDS011;55336;43.062;25.626;2023-05-31T09:44:26;1.58;;;1.42;;
68384;SDS011;55336;43.062;25.626;2023-05-31T09:46:53;1.70;;;1.60;;
68384;SDS011;55336;43.062;25.626;2023-05-31T09:49:19;1.30;;;1.20;;
68384;SDS011;55336;43.062;25.626;2023-05-31T09:51:52;1.63;;;1.52;;
68384;SDS011;55336;43.062;25.626;2023-05-31T09:54:18;1.23;;;1.13;;
68384;SDS011;55336;43.062;25.626;2023-05-31T09:56:47;1.63;;;1.52;;
68384;SDS011;55336;43.062;25.626;2023-05-31T09:59:14;4.55;;;1.80;;
68384;SDS011;55336;43.062;25.626;2023-05-31T10:01:40;1.63;;;1.40;;
68384;SDS011;55336;43.062;25.626;2023-05-31T10:04:06;1.42;;;1.30;;
68384;SDS011;55336;43.062;25.626;2023-05-31T10:06:36;1.38;;;1.27;;
68384;SDS011;55336;43.062;25.626;2023-05-31T10:09:07;2.10;;;1.30;;
68384;SDS011;55336;43.062;25.626;2023-05-31T10:11:42;1.33;;;1.23;;
68384;SDS011;55336;43.062;25.626;2023-05-31T10:14:24;1.83;;;1.67;;
68384;SDS011;55336;43.062;25.626;2023-05-31T10:16:52;1.40;;;1.30;;
68384;SDS011;55336;43.062;25.626;2023-05-31T10:19:22;3.63;;;2.08;;
68384;SDS011;55336;43.062;25.626;2023-05-31T10:21:59;1.98;;;1.85;;
68384;SDS011;55336;43.062;25.626;2023-05-31T10:27:38;0.90;;;0.90;;
68384;SDS011;55336;43.062;25.626;2023-05-31T10:30:09;1.35;;;1.10;;
68384;SDS011;55336;43.062;25.626;2023-05-31T10:32:41;2.05;;;1.42;;
68384;SDS011;55336;43.062;25.626;2023-05-31T10:35:13;1.75;;;1.65;;
68384;SDS011;55336;43.062;25.626;2023-05-31T10:37:47;2.38;;;1.35;;
68384;SDS011;55336;43.062;25.626;2023-05-31T10:41:06;1.13;;;1.02;;
68384;SDS011;55336;43.062;25.626;2023-05-31T10:44:13;1.95;;;1.40;;
68384;SDS011;55336;43.062;25.626;2023-05-31T10:46:49;1.70;;;1.60;;
68384;SDS011;55336;43.062;25.626;2023-05-31T10:49:24;1.50;;;1.38;;
68384;SDS011;55336;43.062;25.626;2023-05-31T10:52:18;1.75;;;1.25;;
68384;SDS011;55336;43.062;25.626;2023-05-31T10:54:45;2.00;;;1.90;;
68384;SDS011;55336;43.062;25.626;2023-05-31T10:57:12;2.00;;;1.83;;
68384;SDS011;55336;43.062;25.626;2023-05-31T10:59:46;1.50;;;1.40;;
68384;SDS011;55336;43.062;25.626;2023-05-31T11:02:12;1.42;;;1.35;;
68384;SDS011;55336;43.062;25.626;2023-05-31T11:04:41;1.92;;;1.83;;
68384;SDS011;55336;43.062;25.626;2023-05-31T11:07:18;1.63;;;1.52;;
68384;SDS011;55336;43.062;25.626;2023-05-31T11:09:54;1.58;;;1.48;;
68384;SDS011;55336;43.062;25.626;2023-05-31T11:12:31;2.25;;;2.05;;
68384;SDS011;55336;43.062;25.626;2023-05-31T11:14:59;1.60;;;1.50;;
68384;SDS011;55336;43.062;25.626;2023-05-31T11:17:28;2.00;;;1.83;;
68384;SDS011;55336;43.062;25.626;2023-05-31T11:20:03;1.27;;;1.17;;
68384;SDS011;55336;43.062;25.626;2023-05-31T11:22:33;1.75;;;1.17;;
68384;SDS011;55336;43.062;25.626;2023-05-31T11:25:05;1.45;;;1.35;;
68384;SDS011;55336;43.062;25.626;2023-05-31T11:27:37;1.75;;;1.65;;
68384;SDS011;55336;43.062;25.626;2023-05-31T11:30:08;1.40;;;1.30;;
68384;SDS011;55336;43.062;25.626;2023-05-31T11:35:13;2.65;;;1.73;;
68384;SDS011;55336;43.062;25.626;2023-05-31T11:37:41;9.80;;;1.73;;
68384;SDS011;55336;43.062;25.626;2023-05-31T11:40:11;1.35;;;1.25;;
68384;SDS011;55336;43.062;25.626;2023-05-31T11:42:40;1.85;;;1.33;;
68384;SDS011;55336;43.062;25.626;2023-05-31T11:50:17;1.50;;;1.40;;
68384;SDS011;55336;43.062;25.626;2023-05-31T11:52:45;4.10;;;2.17;;
68384;SDS011;55336;43.062;25.626;2023-05-31T11:55:11;1.70;;;1.55;;
68384;SDS011;55336;43.062;25.626;2023-05-31T11:57:41;3.60;;;2.15;;
68384;SDS011;55336;43.062;25.626;2023-05-31T12:00:07;1.73;;;1.63;;
68384;SDS011;55336;43.062;25.626;2023-05-31T12:02:35;1.45;;;1.35;;
68384;SDS011;55336;43.062;25.626;2023-05-31T12:05:02;1.05;;;1.05;;
68384;SDS011;55336;43.062;25.626;2023-05-31T12:07:29;1.55;;;1.45;;
68384;SDS011;55336;43.062;25.626;2023-05-31T12:09:55;1.25;;;1.15;;
68384;SDS011;55336;43.062;25.626;2023-05-31T12:12:24;1.40;;;1.30;;
68384;SDS011;55336;43.062;25.626;2023-05-31T12:14:50;1.55;;;1.45;;
68384;SDS011;55336;43.062;25.626;2023-05-31T12:17:17;1.13;;;1.02;;
68384;SDS011;55336;43.062;25.626;2023-05-31T12:19:44;1.70;;;1.42;;
68384;SDS011;55336;43.062;25.626;2023-05-31T12:22:12;1.75;;;1.65;;
68384;SDS011;55336;43.062;25.626;2023-05-31T12:24:47;1.23;;;1.17;;
68384;SDS011;55336;43.062;25.626;2023-05-31T12:27:15;3.38;;;1.13;;
68384;SDS011;55336;43.062;25.626;2023-05-31T12:29:41;1.40;;;1.38;;
68384;SDS011;55336;43.062;25.626;2023-05-31T12:32:07;1.65;;;1.55;;
68384;SDS011;55336;43.062;25.626;2023-05-31T12:34:35;1.75;;;1.65;;
68384;SDS011;55336;43.062;25.626;2023-05-31T12:37:10;1.50;;;1.00;;
68384;SDS011;55336;43.062;25.626;2023-05-31T12:39:37;2.85;;;1.75;;
68384;SDS011;55336;43.062;25.626;2023-05-31T12:42:04;1.55;;;1.10;;
68384;SDS011;55336;43.062;25.626;2023-05-31T12:44:31;1.30;;;1.20;;
68384;SDS011;55336;43.062;25.626;2023-05-31T12:47:06;1.58;;;1.48;;
68384;SDS011;55336;43.062;25.626;2023-05-31T12:49:33;1.48;;;1.27;;
68384;SDS011;55336;43.062;25.626;2023-05-31T12:52:03;1.48;;;1.38;;
68384;SDS011;55336;43.062;25.626;2023-05-31T12:54:34;1.13;;;1.02;;
68384;SDS011;55336;43.062;25.626;2023-05-31T12:57:11;1.40;;;1.30;;
68384;SDS011;55336;43.062;25.626;2023-05-31T12:59:36;2.67;;;1.83;;
68384;SDS011;55336;43.062;25.626;2023-05-31T13:02:03;1.08;;;1.02;;
68384;SDS011;55336;43.062;25.626;2023-05-31T13:04:30;2.47;;;2.05;;
68384;SDS011;55336;43.062;25.626;2023-05-31T13:06:57;1.65;;;1.50;;
68384;SDS011;55336;43.062;25.626;2023-05-31T13:09:23;1.80;;;1.70;;
68384;SDS011;55336;43.062;25.626;2023-05-31T13:11:54;1.65;;;1.55;;
68384;SDS011;55336;43.062;25.626;2023-05-31T13:14:43;1.83;;;1.70;;
68384;SDS011;55336;43.062;25.626;2023-05-31T13:17:09;1.20;;;1.20;;
68384;SDS011;55336;43.062;25.626;2023-05-31T13:19:35;1.77;;;1.67;;
68384;SDS011;55336;43.062;25.626;2023-05-31T13:22:02;1.30;;;1.20;;
68384;SDS011;55336;43.062;25.626;2023-05-31T13:24:28;3.35;;;2.10;;
68384;SDS011;55336;43.062;25.626;2023-05-31T13:26:57;3.50;;;2.05;;
68384;SDS011;55336;43.062;25.626;2023-05-31T13:29:52;1.35;;;1.25;;
68384;SDS011;55336;43.062;25.626;2023-05-31T13:32:17;1.27;;;1.17;;
68384;SDS011;55336;43.062;25.626;2023-05-31T13:34:44;1.35;;;1.27;;
68384;SDS011;55336;43.062;25.626;2023-05-31T13:37:16;1.40;;;1.30;;
68384;SDS011;55336;43.062;25.626;2023-05-31T13:39:46;3.20;;;1.55;;
68384;SDS011;55336;43.062;25.626;2023-05-31T13:42:16;1.02;;;1.02;;
68384;SDS011;55336;43.062;25.626;2023-05-31T13:44:42;1.63;;;1.52;;
68384;SDS011;55336;43.062;25.626;2023-05-31T13:47:09;1.73;;;1.63;;
68384;SDS011;55336;43.062;25.626;2023-05-31T13:49:35;1.80;;;1.63;;
68384;SDS011;55336;43.062;25.626;2023-05-31T13:52:10;1.30;;;1.20;;
68384;SDS011;55336;43.062;25.626;2023-05-31T13:54:39;1.58;;;1.48;;
68384;SDS011;55336;43.062;25.626;2023-05-31T13:57:04;2.45;;;1.83;;
68384;SDS011;55336;43.062;25.626;2023-05-31T13:59:30;1.17;;;1.10;;
68384;SDS011;55336;43.062;25.626;2023-05-31T14:01:56;1.95;;;1.85;;
68384;SDS011;55336;43.062;25.626;2023-05-31T14:04:22;1.48;;;1.38;;
68384;SDS011;55336;43.062;25.626;2023-05-31T14:06:48;1.15;;;1.02;;
68384;SDS011;55336;43.062;25.626;2023-05-31T14:09:14;1.98;;;1.42;;
68384;SDS011;55336;43.062;25.626;2023-05-31T14:11:40;5.10;;;1.80;;
68384;SDS011;55336;43.062;25.626;2023-05-31T14:14:06;3.30;;;1.70;;
68384;SDS011;55336;43.062;25.626;2023-05-31T14:16:32;2.00;;;1.70;;
68384;SDS011;55336;43.062;25.626;2023-05-31T14:18:59;1.95;;;1.55;;
68384;SDS011;55336;43.062;25.626;2023-05-31T14:21:25;1.10;;;0.98;;
68384;SDS011;55336;43.062;25.626;2023-05-31T14:23:51;1.52;;;1.30;;
68384;SDS011;55336;43.062;25.626;2023-05-31T14:26:17;1.38;;;1.27;;
68384;SDS011;55336;43.062;25.626;2023-05-31T14:28:42;1.90;;;1.75;;
68384;SDS011;55336;43.062;25.626;2023-05-31T14:31:08;1.42;;;1.33;;
68384;SDS011;55336;43.062;25.626;2023-05-31T14:33:37;1.55;;;1.45;;
68384;SDS011;55336;43.062;25.626;2023-05-31T14:36:04;1.40;;;1.30;;
68384;SDS011;55336;43.062;25.626;2023-05-31T14:38:29;1.25;;;1.15;;
68384;SDS011;55336;43.062;25.626;2023-05-31T14:40:55;1.42;;;1.10;;
68384;SDS011;55336;43.062;25.626;2023-05-31T14:43:22;1.40;;;1.30;;
68384;SDS011;55336;43.062;25.626;2023-05-31T14:45:48;1.23;;;0.85;;
68384;SDS011;55336;43.062;25.626;2023-05-31T14:48:14;1.10;;;1.10;;
68384;SDS011;55336;43.062;25.626;2023-05-31T14:50:40;1.40;;;1.30;;
68384;SDS011;55336;43.062;25.626;2023-05-31T14:53:06;1.02;;;0.90;;
68384;SDS011;55336;43.062;25.626;2023-05-31T14:55:36;1.20;;;1.10;;
68384;SDS011;55336;43.062;25.626;2023-05-31T14:58:02;1.83;;;1.45;;
68384;SDS011;55336;43.062;25.626;2023-05-31T15:00:28;1.45;;;1.35;;
68384;SDS011;55336;43.062;25.626;2023-05-31T15:02:54;1.90;;;1.48;;
68384;SDS011;55336;43.062;25.626;2023-05-31T15:05:20;1.67;;;1.58;;
68384;SDS011;55336;43.062;25.626;2023-05-31T15:07:46;1.52;;;1.38;;
68384;SDS011;55336;43.062;25.626;2023-05-31T15:10:11;1.60;;;1.50;;
68384;SDS011;55336;43.062;25.626;2023-05-31T15:12:37;2.17;;;1.42;;
68384;SDS011;55336;43.062;25.626;2023-05-31T15:15:03;1.88;;;1.70;;
68384;SDS011;55336;43.062;25.626;2023-05-31T15:17:29;1.90;;;1.70;;
68384;SDS011;55336;43.062;25.626;2023-05-31T15:19:55;2.92;;;1.67;;
68384;SDS011;55336;43.062;25.626;2023-05-31T15:22:20;2.80;;;1.45;;
68384;SDS011;55336;43.062;25.626;2023-05-31T15:24:46;1.30;;;1.20;;
68384;SDS011;55336;43.062;25.626;2023-05-31T15:27:12;1.55;;;1.45;;
68384;SDS011;55336;43.062;25.626;2023-05-31T15:29:39;2.85;;;1.65;;
68384;SDS011;55336;43.062;25.626;2023-05-31T15:32:05;0.98;;;0.98;;
68384;SDS011;55336;43.062;25.626;2023-05-31T15:34:32;1.20;;;1.10;;
68384;SDS011;55336;43.062;25.626;2023-05-31T15:36:58;1.25;;;1.15;;
68384;SDS011;55336;43.062;25.626;2023-05-31T15:39:24;3.45;;;1.73;;
68384;SDS011;55336;43.062;25.626;2023-05-31T15:41:50;1.27;;;1.17;;
68384;SDS011;55336;43.062;25.626;2023-05-31T15:44:16;2.45;;;1.42;;
68384;SDS011;55336;43.062;25.626;2023-05-31T15:46:42;1.70;;;1.60;;
68384;SDS011;55336;43.062;25.626;2023-05-31T15:49:10;2.38;;;1.52;;
68384;SDS011;55336;43.062;25.626;2023-05-31T15:51:36;1.63;;;1.52;;
68384;SDS011;55336;43.062;25.626;2023-05-31T15:54:04;3.53;;;1.67;;
68384;SDS011;55336;43.062;25.626;2023-05-31T15:56:30;1.27;;;1.23;;
68384;SDS011;55336;43.062;25.626;2023-05-31T15:58:56;1.80;;;1.70;;
68384;SDS011;55336;43.062;25.626;2023-05-31T16:01:22;1.55;;;1.45;;
68384;SDS011;55336;43.062;25.626;2023-05-31T16:03:48;1.40;;;1.30;;
68384;SDS011;55336;43.062;25.626;2023-05-31T16:06:16;2.03;;;1.83;;
68384;SDS011;55336;43.062;25.626;2023-05-31T16:08:46;1.67;;;1.50;;
68384;SDS011;55336;43.062;25.626;2023-05-31T16:11:12;1.80;;;1.45;;
68384;SDS011;55336;43.062;25.626;2023-05-31T16:13:38;1.45;;;1.35;;
68384;SDS011;55336;43.062;25.626;2023-05-31T16:16:04;1.52;;;1.42;;
68384;SDS011;55336;43.062;25.626;2023-05-31T16:18:30;2.08;;;1.88;;
68384;SDS011;55336;43.062;25.626;2023-05-31T16:20:56;1.63;;;1.52;;
68384;SDS011;55336;43.062;25.626;2023-05-31T16:23:22;1.80;;;1.38;;
68384;SDS011;55336;43.062;25.626;2023-05-31T16:25:50;2.28;;;1.52;;
68384;SDS011;55336;43.062;25.626;2023-05-31T16:28:18;1.73;;;1.63;;
68384;SDS011;55336;43.062;25.626;2023-05-31T16:30:45;1.35;;;1.25;;
68384;SDS011;55336;43.062;25.626;2023-05-31T16:33:11;2.70;;;2.10;;
68384;SDS011;55336;43.062;25.626;2023-05-31T16:35:37;2.13;;;1.92;;
68384;SDS011;55336;43.062;25.626;2023-05-31T16:38:03;6.25;;;2.42;;
68384;SDS011;55336;43.062;25.626;2023-05-31T16:40:29;1.85;;;1.67;;
68384;SDS011;55336;43.062;25.626;2023-05-31T16:42:55;5.50;;;2.03;;
68384;SDS011;55336;43.062;25.626;2023-05-31T16:47:47;1.88;;;1.77;;
68384;SDS011;55336;43.062;25.626;2023-05-31T16:50:13;6.95;;;2.70;;
68384;SDS011;55336;43.062;25.626;2023-05-31T16:52:39;7.95;;;3.63;;
68384;SDS011;55336;43.062;25.626;2023-05-31T16:57:31;2.55;;;2.30;;
68384;SDS011;55336;43.062;25.626;2023-05-31T17:02:23;5.50;;;2.10;;
68384;SDS011;55336;43.062;25.626;2023-05-31T17:04:49;6.43;;;2.42;;
68384;SDS011;55336;43.062;25.626;2023-05-31T17:09:40;2.67;;;2.03;;
68384;SDS011;55336;43.062;25.626;2023-05-31T17:14:33;4.22;;;2.20;;
68384;SDS011;55336;43.062;25.626;2023-05-31T17:19:24;3.58;;;2.22;;
68384;SDS011;55336;43.062;25.626;2023-05-31T17:21:51;5.45;;;3.58;;
68384;SDS011;55336;43.062;25.626;2023-05-31T17:26:42;2.53;;;2.30;;
68384;SDS011;55336;43.062;25.626;2023-05-31T17:29:10;3.28;;;2.45;;
68384;SDS011;55336;43.062;25.626;2023-05-31T17:31:37;4.32;;;3.40;;
68384;SDS011;55336;43.062;25.626;2023-05-31T17:34:03;4.18;;;2.40;;
68384;SDS011;55336;43.062;25.626;2023-05-31T17:36:30;4.97;;;2.90;;
68384;SDS011;55336;43.062;25.626;2023-05-31T17:38:56;2.05;;;1.95;;
68384;SDS011;55336;43.062;25.626;2023-05-31T17:43:47;3.55;;;2.17;;
68384;SDS011;55336;43.062;25.626;2023-05-31T17:48:39;2.75;;;2.55;;
68384;SDS011;55336;43.062;25.626;2023-05-31T17:51:08;4.35;;;2.63;;
68384;SDS011;55336;43.062;25.626;2023-05-31T17:53:34;4.30;;;2.67;;
68384;SDS011;55336;43.062;25.626;2023-05-31T17:58:26;3.33;;;3.00;;
68384;SDS011;55336;43.062;25.626;2023-05-31T18:00:55;2.45;;;2.05;;
68384;SDS011;55336;43.062;25.626;2023-05-31T18:05:47;4.18;;;2.85;;
68384;SDS011;55336;43.062;25.626;2023-05-31T18:08:13;3.08;;;2.55;;
68384;SDS011;55336;43.062;25.626;2023-05-31T18:13:05;3.15;;;2.20;;
68384;SDS011;55336;43.062;25.626;2023-05-31T18:17:57;3.60;;;3.08;;
68384;SDS011;55336;43.062;25.626;2023-05-31T18:22:48;4.65;;;3.22;;
68384;SDS011;55336;43.062;25.626;2023-05-31T18:27:40;2.55;;;2.35;;
68384;SDS011;55336;43.062;25.626;2023-05-31T18:30:07;3.90;;;3.13;;
68384;SDS011;55336;43.062;25.626;2023-05-31T18:32:34;4.15;;;3.28;;
68384;SDS011;55336;43.062;25.626;2023-05-31T18:37:25;3.38;;;2.78;;
68384;SDS011;55336;43.062;25.626;2023-05-31T18:42:17;4.15;;;3.00;;
68384;SDS011;55336;43.062;25.626;2023-05-31T18:44:43;2.38;;;2.22;;
68384;SDS011;55336;43.062;25.626;2023-05-31T18:47:10;2.65;;;2.45;;
68384;SDS011;55336;43.062;25.626;2023-05-31T18:52:02;3.47;;;2.70;;
68384;SDS011;55336;43.062;25.626;2023-05-31T18:54:28;16.48;;;3.22;;
68384;SDS011;55336;43.062;25.626;2023-05-31T18:56:55;3.53;;;2.80;;
68384;SDS011;55336;43.062;25.626;2023-05-31T18:59:27;2.97;;;2.67;;
68384;SDS011;55336;43.062;25.626;2023-05-31T19:01:57;2.85;;;2.58;;
68384;SDS011;55336;43.062;25.626;2023-05-31T19:04:24;3.38;;;3.08;;
68384;SDS011;55336;43.062;25.626;2023-05-31T19:09:16;4.03;;;2.97;;
68384;SDS011;55336;43.062;25.626;2023-05-31T19:14:11;2.42;;;2.10;;
68384;SDS011;55336;43.062;25.626;2023-05-31T19:19:03;2.40;;;2.20;;
68384;SDS011;55336;43.062;25.626;2023-05-31T19:23:54;5.15;;;3.17;;
68384;SDS011;55336;43.062;25.626;2023-05-31T19:26:22;2.47;;;2.28;;
68384;SDS011;55336;43.062;25.626;2023-05-31T19:31:16;4.88;;;3.33;;
68384;SDS011;55336;43.062;25.626;2023-05-31T19:33:42;3.90;;;3.50;;
68384;SDS011;55336;43.062;25.626;2023-05-31T19:38:34;5.28;;;3.20;;
68384;SDS011;55336;43.062;25.626;2023-05-31T19:41:00;3.08;;;2.72;;
68384;SDS011;55336;43.062;25.626;2023-05-31T19:43:26;2.65;;;2.53;;
68384;SDS011;55336;43.062;25.626;2023-05-31T19:45:52;3.90;;;2.92;;
68384;SDS011;55336;43.062;25.626;2023-05-31T19:48:18;3.83;;;3.10;;
68384;SDS011;55336;43.062;25.626;2023-05-31T19:53:10;2.80;;;2.60;;
68384;SDS011;55336;43.062;25.626;2023-05-31T19:55:36;3.83;;;3.20;;
68384;SDS011;55336;43.062;25.626;2023-05-31T19:58:04;3.15;;;2.95;;
68384;SDS011;55336;43.062;25.626;2023-05-31T20:02:56;8.93;;;4.70;;
68384;SDS011;55336;43.062;25.626;2023-05-31T20:07:48;3.08;;;2.72;;
68384;SDS011;55336;43.062;25.626;2023-05-31T20:12:39;5.15;;;3.40;;
68384;SDS011;55336;43.062;25.626;2023-05-31T20:17:31;3.25;;;2.95;;
68384;SDS011;55336;43.062;25.626;2023-05-31T20:19:57;3.13;;;2.92;;
68384;SDS011;55336;43.062;25.626;2023-05-31T20:24:49;3.35;;;2.90;;
68384;SDS011;55336;43.062;25.626;2023-05-31T20:29:40;4.72;;;3.45;;
68384;SDS011;55336;43.062;25.626;2023-05-31T20:34:32;4.25;;;3.33;;
68384;SDS011;55336;43.062;25.626;2023-05-31T20:39:23;3.60;;;3.30;;
68384;SDS011;55336;43.062;25.626;2023-05-31T20:44:15;4.15;;;3.80;;
68384;SDS011;55336;43.062;25.626;2023-05-31T20:49:07;4.40;;;4.00;;
68384;SDS011;55336;43.062;25.626;2023-05-31T20:53:59;4.60;;;3.47;;
68384;SDS011;55336;43.062;25.626;2023-05-31T20:56:25;3.97;;;3.58;;
68384;SDS011;55336;43.062;25.626;2023-05-31T20:58:51;6.03;;;3.88;;
68384;SDS011;55336;43.062;25.626;2023-05-31T21:03:43;4.88;;;3.40;;
68384;SDS011;55336;43.062;25.626;2023-05-31T21:08:35;7.47;;;3.47;;
68384;SDS011;55336;43.062;25.626;2023-05-31T21:13:26;3.95;;;3.50;;
68384;SDS011;55336;43.062;25.626;2023-05-31T21:15:52;8.05;;;4.10;;
68384;SDS011;55336;43.062;25.626;2023-05-31T21:20:43;11.00;;;3.88;;
68384;SDS011;55336;43.062;25.626;2023-05-31T21:25:35;4.45;;;3.75;;
68384;SDS011;55336;43.062;25.626;2023-05-31T21:30:27;3.75;;;3.45;;
68384;SDS011;55336;43.062;25.626;2023-05-31T21:32:53;5.30;;;3.78;;
68384;SDS011;55336;43.062;25.626;2023-05-31T21:37:45;4.95;;;4.43;;
68384;SDS011;55336;43.062;25.626;2023-05-31T21:42:37;3.40;;;3.10;;
68384;SDS011;55336;43.062;25.626;2023-05-31T21:47:29;3.27;;;2.87;;
68384;SDS011;55336;43.062;25.626;2023-05-31T21:52:24;6.65;;;3.67;;
68384;SDS011;55336;43.062;25.626;2023-05-31T21:54:55;4.25;;;3.75;;
68384;SDS011;55336;43.062;25.626;2023-05-31T21:57:21;3.90;;;3.55;;
68384;SDS011;55336;43.062;25.626;2023-05-31T22:02:13;4.80;;;3.15;;
68384;SDS011;55336;43.062;25.626;2023-05-31T22:04:40;4.10;;;3.80;;
68384;SDS011;55336;43.062;25.626;2023-05-31T22:09:31;4.45;;;3.88;;
68384;SDS011;55336;43.062;25.626;2023-05-31T22:14:23;5.70;;;3.95;;
68384;SDS011;55336;43.062;25.626;2023-05-31T22:16:54;5.95;;;4.18;;
68384;SDS011;55336;43.062;25.626;2023-05-31T22:19:22;5.60;;;5.10;;
68384;SDS011;55336;43.062;25.626;2023-05-31T22:21:51;5.13;;;4.30;;
68384;SDS011;55336;43.062;25.626;2023-05-31T22:24:18;5.82;;;5.30;;
68384;SDS011;55336;43.062;25.626;2023-05-31T22:26:44;6.25;;;5.47;;
68384;SDS011;55336;43.062;25.626;2023-05-31T22:31:36;3.90;;;3.50;;
68384;SDS011;55336;43.062;25.626;2023-05-31T22:36:27;5.53;;;3.38;;
68384;SDS011;55336;43.062;25.626;2023-05-31T22:41:19;4.93;;;3.47;;
68384;SDS011;55336;43.062;25.626;2023-05-31T22:43:45;4.70;;;3.78;;
68384;SDS011;55336;43.062;25.626;2023-05-31T22:48:37;4.82;;;4.32;;
68384;SDS011;55336;43.062;25.626;2023-05-31T22:53:30;4.00;;;3.35;;
68384;SDS011;55336;43.062;25.626;2023-05-31T22:58:22;4.13;;;3.72;;
68384;SDS011;55336;43.062;25.626;2023-05-31T23:03:13;6.20;;;3.92;;
68384;SDS011;55336;43.062;25.626;2023-05-31T23:05:40;4.57;;;4.07;;
68384;SDS011;55336;43.062;25.626;2023-05-31T23:10:35;4.05;;;3.70;;
68384;SDS011;55336;43.062;25.626;2023-05-31T23:15:33;4.45;;;3.63;;
68384;SDS011;55336;43.062;25.626;2023-05-31T23:18:02;5.32;;;4.32;;
68384;SDS011;55336;43.062;25.626;2023-05-31T23:20:32;5.22;;;4.82;;
68384;SDS011;55336;43.062;25.626;2023-05-31T23:23:01;4.20;;;3.80;;
68384;SDS011;55336;43.062;25.626;2023-05-31T23:25:28;7.32;;;4.07;;
68384;SDS011;55336;43.062;25.626;2023-05-31T23:30:19;4.55;;;4.20;;
68384;SDS011;55336;43.062;25.626;2023-05-31T23:35:11;4.13;;;3.83;;
68384;SDS011;55336;43.062;25.626;2023-05-31T23:37:37;5.30;;;3.78;;
68384;SDS011;55336;43.062;25.626;2023-05-31T23:40:03;4.55;;;4.15;;
68384;SDS011;55336;43.062;25.626;2023-05-31T23:42:32;3.90;;;3.60;;
68384;SDS011;55336;43.062;25.626;2023-05-31T23:44:59;4.50;;;4.15;;
68384;SDS011;55336;43.062;25.626;2023-05-31T23:47:25;4.15;;;3.80;;
68384;SDS011;55336;43.062;25.626;2023-05-31T23:52:17;5.05;;;4.15;;
68384;SDS011;55336;43.062;25.626;2023-05-31T23:54:43;4.70;;;4.30;;
68384;SDS011;55336;43.062;25.626;2023-05-31T23:57:10;5.15;;;4.68;;
68384;SDS011;55336;43.062;25.626;2023-05-31T23:59:36;5.70;;;4.55;;
